createdAt,value
2023-01-09T00:00:59.454Z,8.65
2023-01-09T00:03:26.403Z,10.10
2023-01-09T00:05:53.411Z,9.85
2023-01-09T00:08:20.296Z,8.57
2023-01-09T00:10:49.743Z,8.68
2023-01-09T00:13:18.053Z,7.88
2023-01-09T00:15:45.725Z,7.93
2023-01-09T00:18:12.578Z,7.82
2023-01-09T00:20:39.312Z,8.57
2023-01-09T00:23:06.157Z,8.00
2023-01-09T00:25:33.483Z,8.93
2023-01-09T00:28:00.204Z,8.98
2023-01-09T00:30:27.629Z,9.27
2023-01-09T00:32:55.518Z,9.13
2023-01-09T00:35:28.593Z,10.07
2023-01-09T00:37:55.481Z,8.20
2023-01-09T00:40:22.422Z,8.13
2023-01-09T00:42:55.883Z,9.13
2023-01-09T00:45:29.090Z,10.18
2023-01-09T00:48:07.080Z,8.80
2023-01-09T00:50:35.484Z,8.40
2023-01-09T00:53:13.762Z,9.63
2023-01-09T00:55:41.284Z,8.85
2023-01-09T00:58:08.707Z,10.02
2023-01-09T01:00:35.509Z,9.23
2023-01-09T01:03:02.554Z,8.70
2023-01-09T01:05:48.010Z,9.18
2023-01-09T01:08:18.029Z,9.68
2023-01-09T01:10:46.818Z,9.05
2023-01-09T01:13:13.637Z,9.25
2023-01-09T01:15:45.584Z,10.90
2023-01-09T01:18:13.450Z,9.77
2023-01-09T01:20:45.113Z,9.88
2023-01-09T01:23:12.371Z,10.00
2023-01-09T01:25:41.676Z,9.98
2023-01-09T01:28:08.795Z,10.38
2023-01-09T01:30:40.541Z,9.55
2023-01-09T01:33:08.321Z,9.50
2023-01-09T01:35:35.386Z,9.38
2023-01-09T01:38:02.665Z,9.20
2023-01-09T01:40:30.068Z,9.43
2023-01-09T01:42:58.667Z,9.43
2023-01-09T01:45:28.526Z,8.80
2023-01-09T01:48:15.652Z,10.30
2023-01-09T01:51:04.495Z,10.98
2023-01-09T01:53:56.459Z,9.45
2023-01-09T01:56:36.802Z,9.65
2023-01-09T01:59:23.038Z,9.82
2023-01-09T02:01:56.133Z,10.02
2023-01-09T02:04:23.152Z,9.48
2023-01-09T02:06:53.605Z,11.02
2023-01-09T02:09:22.908Z,11.02
2023-01-09T02:11:56.305Z,10.13
2023-01-09T02:14:29.348Z,9.70
2023-01-09T02:17:24.511Z,10.67
2023-01-09T02:20:39.270Z,10.00
2023-01-09T02:23:49.264Z,9.57
2023-01-09T02:26:53.016Z,10.50
2023-01-09T02:29:52.767Z,11.27
2023-01-09T02:32:58.599Z,11.70
2023-01-09T02:35:38.537Z,9.68
2023-01-09T02:38:50.813Z,10.07
2023-01-09T02:41:30.609Z,9.63
2023-01-09T02:44:17.919Z,9.45
2023-01-09T02:46:44.725Z,9.43
2023-01-09T02:49:15.925Z,10.18
2023-01-09T02:51:58.329Z,9.88
2023-01-09T02:55:10.054Z,10.60
2023-01-09T02:58:18.487Z,10.15
2023-01-09T03:01:35.917Z,11.25
2023-01-09T03:04:22.726Z,10.73
2023-01-09T03:07:03.006Z,11.75
2023-01-09T03:09:34.168Z,11.85
2023-01-09T03:12:14.335Z,10.73
2023-01-09T03:14:46.497Z,10.77
2023-01-09T03:17:18.860Z,10.13
2023-01-09T03:19:46.913Z,10.50
2023-01-09T03:22:13.899Z,10.57
2023-01-09T03:24:40.690Z,10.65
2023-01-09T03:27:09.315Z,9.10
2023-01-09T03:29:37.335Z,9.27
2023-01-09T03:32:04.283Z,11.00
2023-01-09T03:34:31.073Z,9.57
2023-01-09T03:36:57.806Z,10.32
2023-01-09T03:39:24.527Z,9.55
2023-01-09T03:41:51.266Z,10.27
2023-01-09T03:44:18.018Z,10.38
2023-01-09T03:46:44.811Z,10.57
2023-01-09T03:49:11.784Z,11.82
2023-01-09T03:51:38.518Z,10.43
2023-01-09T03:54:05.297Z,10.63
2023-01-09T03:56:32.032Z,10.95
2023-01-09T03:58:58.779Z,11.18
2023-01-09T04:01:25.658Z,11.10
2023-01-09T04:03:53.091Z,11.55
2023-01-09T04:06:19.867Z,11.18
2023-01-09T04:08:46.620Z,12.15
2023-01-09T04:11:13.431Z,10.95
2023-01-09T04:13:40.195Z,10.90
2023-01-09T04:16:07.153Z,10.68
2023-01-09T04:18:33.947Z,10.57
2023-01-09T04:21:00.692Z,10.32
2023-01-09T04:23:27.420Z,9.82
2023-01-09T04:25:54.168Z,10.50
2023-01-09T04:28:20.907Z,11.40
2023-01-09T04:30:47.633Z,10.93
2023-01-09T04:33:14.347Z,10.90
2023-01-09T04:35:41.286Z,10.52
2023-01-09T04:38:08.020Z,9.77
2023-01-09T04:40:34.759Z,11.48
2023-01-09T04:43:01.587Z,10.57
2023-01-09T04:45:29.058Z,11.27
2023-01-09T04:47:55.848Z,12.10
2023-01-09T04:50:22.658Z,10.63
2023-01-09T04:52:49.384Z,11.18
2023-01-09T04:55:16.210Z,10.65
2023-01-09T04:57:43.149Z,10.00
2023-01-09T05:00:12.217Z,11.15
2023-01-09T05:02:40.362Z,9.68
2023-01-09T05:05:11.563Z,10.43
2023-01-09T05:07:39.599Z,10.85
2023-01-09T05:10:09.027Z,10.95
2023-01-09T05:12:36.553Z,10.80
2023-01-09T05:15:05.304Z,11.10
2023-01-09T05:17:32.056Z,10.93
2023-01-09T05:20:00.762Z,11.85
2023-01-09T05:22:27.970Z,10.07
2023-01-09T05:24:54.738Z,10.77
2023-01-09T05:27:21.542Z,10.23
2023-01-09T05:29:48.259Z,11.55
2023-01-09T05:32:15.035Z,11.20
2023-01-09T05:34:41.805Z,10.55
2023-01-09T05:37:08.595Z,10.07
2023-01-09T05:39:35.444Z,13.05
2023-01-09T05:42:02.412Z,10.18
2023-01-09T05:44:29.204Z,11.38
2023-01-09T05:46:56.163Z,11.35
2023-01-09T05:49:22.891Z,10.57
2023-01-09T05:51:52.195Z,11.02
2023-01-09T05:54:18.934Z,9.07
2023-01-09T05:56:45.644Z,11.02
2023-01-09T05:59:12.367Z,9.88
2023-01-09T06:01:39.166Z,9.70
2023-01-09T06:04:06.158Z,10.13
2023-01-09T06:06:32.949Z,10.85
2023-01-09T06:08:59.702Z,11.75
2023-01-09T06:11:26.451Z,10.88
2023-01-09T06:13:53.154Z,11.02
2023-01-09T06:16:20.917Z,11.68
2023-01-09T06:18:47.688Z,13.00
2023-01-09T06:21:14.939Z,11.15
2023-01-09T06:23:41.732Z,10.30
2023-01-09T06:26:08.751Z,10.52
2023-01-09T06:28:36.410Z,11.18
2023-01-09T06:31:03.272Z,10.00
2023-01-09T06:33:30.209Z,11.88
2023-01-09T06:35:57.044Z,12.32
2023-01-09T06:38:23.863Z,10.05
2023-01-09T06:40:50.794Z,11.55
2023-01-09T06:43:17.564Z,10.25
2023-01-09T06:45:44.648Z,11.70
2023-01-09T06:48:12.115Z,12.85
2023-01-09T06:50:38.924Z,10.73
2023-01-09T06:53:05.693Z,11.13
2023-01-09T06:55:32.631Z,10.50
2023-01-09T06:57:59.373Z,11.93
2023-01-09T07:00:27.179Z,11.85
2023-01-09T07:02:54.024Z,11.80
2023-01-09T07:05:20.867Z,12.63
2023-01-09T07:07:47.637Z,12.07
2023-01-09T07:10:14.950Z,12.70
2023-01-09T07:12:41.716Z,12.02
2023-01-09T07:15:08.966Z,11.75
2023-01-09T07:17:35.925Z,12.55
2023-01-09T07:20:03.763Z,11.25
2023-01-09T07:22:31.923Z,13.13
2023-01-09T07:24:58.656Z,10.85
2023-01-09T07:27:25.379Z,9.82
2023-01-09T07:29:53.421Z,10.48
2023-01-09T07:32:20.384Z,10.38
2023-01-09T07:34:49.188Z,11.18
2023-01-09T07:37:15.931Z,10.23
2023-01-09T07:39:43.587Z,9.57
2023-01-09T07:42:11.358Z,9.80
2023-01-09T07:44:38.401Z,10.93
2023-01-09T07:47:05.196Z,10.90
2023-01-09T07:49:32.059Z,10.52
2023-01-09T07:51:59.012Z,11.02
2023-01-09T07:54:25.817Z,11.20
2023-01-09T07:56:52.932Z,12.05
2023-01-09T07:59:19.706Z,10.55
2023-01-09T08:01:46.590Z,10.07
2023-01-09T08:04:13.475Z,11.45
2023-01-09T08:06:40.254Z,11.13
2023-01-09T08:09:08.620Z,10.15
2023-01-09T08:11:35.361Z,11.02
2023-01-09T08:14:02.222Z,11.00
2023-01-09T08:16:29.241Z,13.77
2023-01-09T08:18:55.976Z,13.02
2023-01-09T08:21:22.779Z,12.25
2023-01-09T08:23:49.549Z,14.25
2023-01-09T08:26:17.127Z,13.70
2023-01-09T08:28:45.038Z,13.90
2023-01-09T08:31:11.888Z,11.63
2023-01-09T08:33:40.453Z,11.95
2023-01-09T08:36:07.700Z,11.85
2023-01-09T08:38:34.443Z,11.55
2023-01-09T08:41:21.197Z,13.50
2023-01-09T08:44:06.702Z,13.18
2023-01-09T08:46:52.117Z,13.38
2023-01-09T08:49:18.912Z,12.25
2023-01-09T08:51:45.657Z,13.80
2023-01-09T08:54:12.978Z,13.60
2023-01-09T08:56:39.715Z,13.80
2023-01-09T08:59:06.473Z,12.63
2023-01-09T09:01:33.282Z,14.13
2023-01-09T09:04:00.029Z,12.18
2023-01-09T09:06:26.860Z,12.02
2023-01-09T09:08:53.708Z,11.30
2023-01-09T09:11:20.432Z,11.68
2023-01-09T09:13:47.177Z,10.93
2023-01-09T09:16:13.955Z,10.35
2023-01-09T09:18:40.740Z,10.05
2023-01-09T09:21:08.289Z,12.50
2023-01-09T09:23:36.350Z,11.55
2023-01-09T09:26:03.051Z,10.48
2023-01-09T09:28:29.815Z,12.13
2023-01-09T09:30:57.253Z,11.13
2023-01-09T09:33:23.989Z,10.77
2023-01-09T09:35:50.773Z,9.82
2023-01-09T09:38:17.961Z,10.95
2023-01-09T09:41:34.144Z,9.88
2023-01-09T09:44:53.343Z,10.77
2023-01-09T09:47:48.033Z,10.35
2023-01-09T09:51:02.201Z,11.50
2023-01-09T09:53:31.258Z,9.18
2023-01-09T09:55:58.121Z,9.50
2023-01-09T09:58:38.448Z,8.82
2023-01-09T10:01:08.260Z,9.43
2023-01-09T10:03:53.422Z,8.27
2023-01-09T10:06:34.060Z,9.38
2023-01-09T10:09:27.924Z,9.13
2023-01-09T10:12:19.015Z,8.38
2023-01-09T10:14:45.909Z,9.02
2023-01-09T10:17:47.630Z,9.20
2023-01-09T10:20:52.219Z,8.40
2023-01-09T10:23:56.556Z,8.48
2023-01-09T10:26:50.883Z,7.38
2023-01-09T10:29:41.598Z,8.90
2023-01-09T10:32:40.731Z,8.48
2023-01-09T10:36:03.571Z,7.10
2023-01-09T10:38:39.921Z,6.25
2023-01-09T10:41:43.018Z,7.70
2023-01-09T10:44:38.805Z,10.80
2023-01-09T10:47:27.514Z,7.38
2023-01-09T10:49:56.681Z,7.03
2023-01-09T10:52:36.593Z,7.78
2023-01-09T10:55:38.659Z,5.70
2023-01-09T10:58:13.749Z,7.10
2023-01-09T11:00:41.323Z,6.95
2023-01-09T11:03:17.761Z,6.45
2023-01-09T11:05:51.087Z,5.95
2023-01-09T11:08:35.291Z,6.43
2023-01-09T11:13:33.141Z,4.90
2023-01-09T11:16:23.873Z,5.10
2023-01-09T11:19:00.688Z,4.85
2023-01-09T11:21:40.661Z,5.72
2023-01-09T11:24:19.497Z,5.30
2023-01-09T11:26:52.241Z,4.30
2023-01-09T11:29:21.849Z,4.80
2023-01-09T11:31:58.480Z,4.70
2023-01-09T11:34:34.674Z,5.80
2023-01-09T11:37:15.061Z,6.18
2023-01-09T11:39:48.045Z,3.42
2023-01-09T11:42:45.286Z,4.07
2023-01-09T11:45:24.155Z,5.05
2023-01-09T11:47:50.970Z,4.40
2023-01-09T11:50:26.953Z,5.22
2023-01-09T11:53:16.084Z,7.45
2023-01-09T11:55:45.049Z,4.75
2023-01-09T11:58:16.685Z,3.85
2023-01-09T12:00:56.845Z,5.05
2023-01-09T12:03:49.613Z,3.08
2023-01-09T12:07:00.693Z,4.90
2023-01-09T12:09:46.310Z,4.13
2023-01-09T12:13:26.503Z,2.78
2023-01-09T12:16:29.871Z,2.67
2023-01-09T12:20:05.543Z,4.15
2023-01-09T12:23:07.311Z,4.40
2023-01-09T12:25:57.218Z,2.83
2023-01-09T12:29:12.869Z,4.43
2023-01-09T12:32:12.193Z,3.25
2023-01-09T12:34:56.376Z,4.47
2023-01-09T12:40:17.488Z,3.10
2023-01-09T12:43:26.514Z,2.08
2023-01-09T12:46:11.981Z,2.50
2023-01-09T12:49:35.707Z,4.30
2023-01-09T12:52:24.348Z,3.78
2023-01-09T12:55:06.467Z,2.97
2023-01-09T12:57:38.833Z,2.58
2023-01-09T13:00:23.347Z,3.03
2023-01-09T13:03:21.102Z,2.45
2023-01-09T13:05:51.465Z,3.00
2023-01-09T13:08:24.074Z,3.22
2023-01-09T13:11:19.335Z,5.07
2023-01-09T13:14:01.484Z,3.67
2023-01-09T13:16:41.671Z,7.20
2023-01-09T13:19:26.283Z,3.75
2023-01-09T13:21:55.961Z,3.33
2023-01-09T13:24:57.460Z,3.15
2023-01-09T13:27:28.689Z,2.17
2023-01-09T13:30:38.543Z,2.83
2023-01-09T13:33:23.244Z,3.38
2023-01-09T13:35:53.457Z,4.22
2023-01-09T13:38:25.764Z,2.53
2023-01-09T13:41:35.781Z,4.22
2023-01-09T13:44:18.393Z,3.85
2023-01-09T13:46:52.295Z,5.28
2023-01-09T13:52:04.616Z,2.47
2023-01-09T13:54:53.443Z,2.40
2023-01-09T13:57:20.083Z,2.95
2023-01-09T13:59:48.453Z,3.60
2023-01-09T14:02:33.851Z,2.20
2023-01-09T14:05:03.209Z,1.88
2023-01-09T14:07:35.846Z,3.30
2023-01-09T14:10:29.157Z,2.92
2023-01-09T14:12:58.033Z,4.43
2023-01-09T14:15:40.089Z,2.97
2023-01-09T14:18:15.666Z,3.30
2023-01-09T14:20:56.776Z,3.30
2023-01-09T14:23:45.940Z,3.42
2023-01-09T14:26:41.538Z,3.53
2023-01-09T14:29:39.577Z,2.05
2023-01-09T14:32:26.437Z,2.25
2023-01-09T14:34:58.855Z,2.58
2023-01-09T14:37:30.024Z,3.03
2023-01-09T14:39:58.496Z,5.68
2023-01-09T14:42:30.801Z,3.67
2023-01-09T14:45:07.062Z,3.17
2023-01-09T14:48:02.490Z,5.43
2023-01-09T14:50:38.967Z,3.63
2023-01-09T14:53:15.600Z,4.72
2023-01-09T14:55:42.308Z,2.88
2023-01-09T14:58:33.121Z,2.03
2023-01-09T15:01:25.484Z,3.58
2023-01-09T15:04:02.201Z,3.75
2023-01-09T15:06:36.763Z,3.88
2023-01-09T15:09:09.343Z,3.80
2023-01-09T15:11:40.031Z,2.03
2023-01-09T15:14:10.300Z,3.22
2023-01-09T15:16:37.186Z,3.33
2023-01-09T15:19:08.582Z,2.83
2023-01-09T15:21:35.323Z,3.03
2023-01-09T15:24:27.010Z,2.85
2023-01-09T15:27:01.197Z,3.55
2023-01-09T15:29:28.827Z,5.13
2023-01-09T15:32:07.415Z,4.47
2023-01-09T15:34:34.847Z,5.38
2023-01-09T15:37:03.110Z,2.63
2023-01-09T15:39:36.652Z,12.73
2023-01-09T15:42:23.131Z,6.25
2023-01-09T15:44:53.763Z,5.28
2023-01-09T15:47:27.828Z,5.30
2023-01-09T15:49:57.876Z,4.32
2023-01-09T15:52:25.835Z,5.57
2023-01-09T15:54:52.654Z,6.18
2023-01-09T15:57:25.488Z,4.78
2023-01-09T15:59:57.374Z,4.55
2023-01-09T16:02:44.323Z,4.60
2023-01-09T16:05:17.348Z,4.60
2023-01-09T16:07:49.803Z,4.60
2023-01-09T16:10:30.236Z,5.63
2023-01-09T16:12:57.648Z,6.70
2023-01-09T16:15:25.330Z,6.05
2023-01-09T16:18:15.512Z,4.38
2023-01-09T16:20:43.839Z,4.65
2023-01-09T16:23:23.287Z,4.78
2023-01-09T16:25:50.066Z,4.38
2023-01-09T16:28:26.978Z,6.13
2023-01-09T16:31:09.718Z,3.67
2023-01-09T16:33:45.216Z,3.00
2023-01-09T16:36:13.773Z,4.53
2023-01-09T16:38:43.643Z,3.65
2023-01-09T16:41:40.274Z,3.22
2023-01-09T16:44:10.536Z,4.90
2023-01-09T16:46:43.264Z,4.57
2023-01-09T16:49:18.974Z,3.88
2023-01-09T16:51:47.795Z,3.08
2023-01-09T16:54:14.925Z,4.85
2023-01-09T16:56:49.174Z,3.40
2023-01-09T16:59:21.540Z,3.10
2023-01-09T17:01:48.681Z,4.32
2023-01-09T17:04:20.368Z,3.85
2023-01-09T17:06:49.170Z,3.20
2023-01-09T17:09:23.153Z,4.57
2023-01-09T17:11:50.890Z,3.72
2023-01-09T17:14:17.631Z,3.63
2023-01-09T17:16:46.655Z,3.80
2023-01-09T17:19:19.425Z,2.50
2023-01-09T17:21:46.490Z,3.70
2023-01-09T17:24:32.003Z,2.70
2023-01-09T17:27:19.140Z,2.70
2023-01-09T17:29:46.024Z,3.15
2023-01-09T17:32:17.802Z,3.53
2023-01-09T17:34:44.632Z,2.17
2023-01-09T17:37:16.571Z,4.28
2023-01-09T17:39:44.684Z,3.45
2023-01-09T17:42:12.189Z,4.22
2023-01-09T17:44:39.008Z,3.75
2023-01-09T17:47:07.070Z,4.05
2023-01-09T17:49:33.852Z,3.28
2023-01-09T17:52:01.254Z,3.28
2023-01-09T17:54:28.022Z,4.43
2023-01-09T17:56:55.107Z,2.65
2023-01-09T17:59:21.914Z,3.47
2023-01-09T18:01:48.783Z,2.63
2023-01-09T18:04:15.598Z,4.03
2023-01-09T18:06:42.669Z,4.93
2023-01-09T18:09:17.057Z,3.40
2023-01-09T18:11:45.118Z,4.60
2023-01-09T18:14:13.657Z,3.33
2023-01-09T18:16:40.814Z,2.88
2023-01-09T18:19:07.604Z,2.92
2023-01-09T18:21:34.344Z,2.97
2023-01-09T18:24:02.163Z,3.83
2023-01-09T18:26:28.988Z,3.30
2023-01-09T18:28:59.393Z,2.35
2023-01-09T18:31:28.166Z,2.47
2023-01-09T18:33:57.828Z,2.78
2023-01-09T18:36:30.851Z,3.00
2023-01-09T18:39:00.211Z,3.97
2023-01-09T18:41:28.157Z,2.55
2023-01-09T18:44:01.227Z,3.22
2023-01-09T18:46:32.297Z,2.63
2023-01-09T18:49:04.529Z,2.90
2023-01-09T18:51:34.365Z,3.08
2023-01-09T18:54:01.469Z,2.72
2023-01-09T18:56:30.045Z,3.08
2023-01-09T18:58:58.168Z,3.20
2023-01-09T19:01:27.338Z,2.67
2023-01-09T19:03:55.571Z,2.78
2023-01-09T19:06:22.538Z,2.67
2023-01-09T19:08:50.418Z,2.78
2023-01-09T19:11:17.212Z,3.88
2023-01-09T19:13:44.194Z,2.88
2023-01-09T19:16:11.546Z,2.97
2023-01-09T19:18:41.955Z,2.15
2023-01-09T19:21:22.047Z,3.75
2023-01-09T19:23:49.719Z,2.45
2023-01-09T19:26:23.893Z,2.65
2023-01-09T19:28:54.931Z,3.47
2023-01-09T19:31:24.372Z,4.28
2023-01-09T19:33:52.408Z,3.33
2023-01-09T19:36:19.701Z,4.47
2023-01-09T19:38:46.695Z,4.50
2023-01-09T19:41:20.615Z,2.78
2023-01-09T19:46:22.084Z,3.78
2023-01-09T19:48:49.024Z,3.58
2023-01-09T19:51:19.010Z,3.30
2023-01-09T19:53:53.540Z,3.38
2023-01-09T19:56:23.332Z,3.08
2023-01-09T19:58:57.300Z,2.50
2023-01-09T20:03:56.504Z,2.20
2023-01-09T20:06:26.354Z,3.83
2023-01-09T20:08:56.665Z,2.63
2023-01-09T20:11:26.391Z,2.53
2023-01-09T20:13:55.417Z,3.60
2023-01-09T20:16:30.022Z,1.80
2023-01-09T20:19:00.285Z,2.65
2023-01-09T20:21:28.888Z,2.70
2023-01-09T20:23:59.652Z,2.10
2023-01-09T20:26:27.190Z,3.15
2023-01-09T20:28:54.962Z,2.25
2023-01-09T20:31:25.068Z,2.72
2023-01-09T20:33:51.909Z,2.33
2023-01-09T20:36:21.548Z,2.42
2023-01-09T20:38:48.563Z,1.85
2023-01-09T20:41:22.600Z,2.53
2023-01-09T20:44:01.760Z,2.45
2023-01-09T20:46:41.941Z,2.08
2023-01-09T20:49:13.041Z,3.03
2023-01-09T20:51:49.800Z,2.65
2023-01-09T20:54:21.136Z,2.35
2023-01-09T20:56:48.412Z,2.35
2023-01-09T20:59:20.084Z,2.45
2023-01-09T21:01:47.276Z,1.52
2023-01-09T21:04:14.115Z,2.40
2023-01-09T21:06:41.136Z,2.30
2023-01-09T21:09:08.179Z,3.00
2023-01-09T21:11:35.202Z,3.88
2023-01-09T21:14:02.112Z,2.13
2023-01-09T21:16:29.451Z,2.20
2023-01-09T21:18:56.243Z,2.13
2023-01-09T21:21:27.261Z,2.55
2023-01-09T21:23:57.550Z,2.45
2023-01-09T21:26:28.310Z,2.22
2023-01-09T21:28:57.575Z,2.33
2023-01-09T21:31:34.409Z,2.67
2023-01-09T21:34:05.825Z,2.53
2023-01-09T21:36:35.116Z,3.30
2023-01-09T21:39:03.027Z,2.05
2023-01-09T21:41:48.446Z,2.42
2023-01-09T21:44:33.899Z,2.08
2023-01-09T21:47:02.999Z,2.45
2023-01-09T21:49:34.718Z,1.75
2023-01-09T21:52:04.101Z,2.72
2023-01-09T21:54:31.926Z,1.60
2023-01-09T21:56:59.349Z,1.60
2023-01-09T21:59:26.340Z,2.35
2023-01-09T22:01:53.277Z,2.17
2023-01-09T22:04:23.950Z,2.60
2023-01-09T22:06:51.721Z,2.33
2023-01-09T22:09:18.535Z,1.58
2023-01-09T22:11:45.376Z,1.65
2023-01-09T22:14:15.329Z,2.20
2023-01-09T22:16:44.423Z,4.22
2023-01-09T22:19:13.276Z,2.75
2023-01-09T22:21:40.217Z,2.22
2023-01-09T22:24:07.298Z,2.22
2023-01-09T22:26:35.137Z,2.55
2023-01-09T22:29:01.958Z,2.08
2023-01-09T22:31:29.356Z,3.13
2023-01-09T22:33:58.422Z,2.60
2023-01-09T22:36:27.965Z,1.80
2023-01-09T22:38:56.345Z,3.40
2023-01-09T22:41:24.941Z,2.90
2023-01-09T22:43:51.820Z,2.35
2023-01-09T22:46:18.736Z,1.88
2023-01-09T22:48:45.565Z,3.78
2023-01-09T22:51:17.084Z,3.58
2023-01-09T22:53:44.583Z,3.00
2023-01-09T22:56:18.402Z,2.38
2023-01-09T22:58:50.890Z,2.05
2023-01-09T23:01:18.425Z,2.97
2023-01-09T23:03:45.154Z,2.85
2023-01-09T23:06:18.928Z,3.30
2023-01-09T23:08:46.909Z,3.28
2023-01-09T23:11:39.578Z,3.03
2023-01-09T23:14:06.567Z,3.33
2023-01-09T23:16:33.310Z,2.95
2023-01-09T23:19:00.086Z,2.75
2023-01-09T23:21:26.873Z,2.97
2023-01-09T23:23:53.569Z,2.85
2023-01-09T23:26:20.352Z,2.63
2023-01-09T23:28:47.109Z,2.58
2023-01-09T23:31:13.856Z,2.53
2023-01-09T23:33:40.610Z,3.22
2023-01-09T23:36:07.581Z,4.60
2023-01-09T23:38:34.294Z,2.63
2023-01-09T23:41:01.025Z,2.28
2023-01-09T23:43:27.765Z,2.80
2023-01-09T23:45:54.529Z,2.35
2023-01-09T23:48:21.319Z,1.92
2023-01-09T23:50:54.133Z,2.38
2023-01-09T23:53:22.836Z,1.98
2023-01-09T23:55:54.603Z,3.30
2023-01-09T23:58:21.807Z,2.10
